• Join FlightAware (Why Join?)
  • Login
  • US Flag 
10:10AM EDT


 

Airport Tracker/Info


-or-


 

Live Flight TrackerFlight Track Log ✈ JUS327 ✈ 14-Apr-2013 ✈ KRFD - KYIP

Flight Track Log - Related Links

Times and Time Zones

All times are in EDT time to prevent confusion due to time zone crossing. See the JUS327 flight status page for this flight to view local times or setup timezone preferences in your user account.

Time Position Orientation Groundspeed Altitude Reporting Facility
EDT Latitude Longitude Course Direction KTS MPH feet Rate Location/Type
10:38PM 42.1847 -89.0361 88° East 264 304 4,700  Level Chicago Center
10:39PM 42.2550 -88.9758 32° Northeast 286 329 7,300 1,620 Climbing Chicago Center
10:41PM 42.3244 -88.9050 37° Northeast 313 360 8,000 300 Climbing Chicago Center
10:42PM 42.4000 -88.8442 31° Northeast 314 361 8,000  Level Chicago Center
10:43PM 42.4814 -88.8025 21° North 319 367 8,000  Level Chicago Center
10:44PM 42.2208 -88.1952 88° East  Level Estimated
10:44PM 42.5672 -88.7633 19° North 323 372 8,000  Level Chicago Center
10:45PM 42.6542 -88.7267 17° North 326 375 8,800 1,680 Climbing Chicago Center
10:46PM 42.7128 -88.6417 47° Northeast 343 395 11,500 2,460 Climbing Chicago Center
10:47PM 42.7214 -88.5014 85° East 371 427 13,900 2,520 Climbing Chicago Center
10:48PM 42.7283 -88.3567 86° East 383 441 16,700 2,880 Climbing Chicago Center
10:49PM 42.7281 -88.1797 90° East 399 459 19,800 2,700 Climbing Chicago Center
10:50PM 42.7319 -88.0258 88° East 408 470 22,300 2,280 Climbing Chicago Center
10:51PM 42.7378 -87.8689 87° East 416 479 24,500 1,320 Climbing Chicago Center
10:52PM 42.7406 -87.7089 89° East 423 487 25,000 240 Climbing Chicago Center
10:53PM 42.7481 -87.5450 86° East 433 498 25,000  Level Chicago Center
10:54PM 42.7539 -87.3847 87° East 427 491 25,000  Level Chicago Center
10:55PM 42.7572 -87.2281 88° East 428 493 25,000  Level Chicago Center
10:56PM 42.7603 -87.0686 88° East 425 489 25,000  Level Chicago Center
10:57PM 42.7631 -86.9039 89° East 434 499 25,000  Level Chicago Center
10:58PM 42.7667 -86.7392 88° East 437 503 25,000  Level Chicago Center
10:59PM 42.7714 -86.5736 88° East 440 506 25,000  Level Chicago Center
11:00PM 42.7747 -86.3758 89° East 441 507 25,000  Level Chicago Center
11:01PM 42.7767 -86.2106 89° East 442 509 25,000  Level Chicago Center
11:02PM 42.7783 -86.0456 89° East 442 509 25,000  Level Chicago Center
11:03PM 42.7800 -85.8814 89° East 442 509 25,000  Level Chicago Center
11:04PM 42.7822 -85.7169 89° East 441 507 25,000 -60 Level Chicago Center
11:05PM 42.7792 -85.5511 91° East 443 510 24,900 -780 Descending Chicago Center
11:06PM 42.7775 -85.3875 91° East 438 504 23,500 -1,680 Descending Chicago Center
11:07PM 42.7603 -85.2272 98° East 431 496 21,500 -1,260 Descending Chicago Center
11:08PM 42.7461 -85.0400 96° East 418 481 21,000 -300 Descending Chicago Center
11:09PM 42.7328 -84.8889 97° East 407 468 21,000 -540 Level Chicago Center
11:10PM 42.7147 -84.7383 99° East 406 467 20,000 -1,440 Descending Chicago Center
11:11PM 42.6647 -84.6008 116° Southeast 404 465 18,200 -1,860 Descending Chicago Center
11:11PM 42.6519 -84.5706 120° Southeast 397 457 17,700 -2,340 Descending FAA TRACON SMA TRACON (SMA)
11:12PM 42.6325 -84.5203 118° Southeast 393 452 16,900 -2,340 Descending FAA TRACON SMA TRACON (SMA)
11:12PM 42.6167 -84.4806 118° Southeast 392 451 16,200 -2,100 Descending FAA TRACON SMA TRACON (SMA)
11:12PM 42.6006 -84.4411 119° Southeast 390 449 15,500 -2,280 Descending FAA TRACON SMA TRACON (SMA)
11:13PM 42.5814 -84.3931 118° Southeast 380 437 14,700 -2,400 Descending FAA TRACON SMA TRACON (SMA)
11:13PM 42.5675 -84.3561 117° Southeast 363 418 13,900 -2,280 Descending FAA TRACON SMA TRACON (SMA)
11:13PM 42.5536 -84.3194 117° Southeast 356 410 13,200 -2,520 Descending FAA TRACON SMA TRACON (SMA)
11:14PM 42.5375 -84.2736 115° Southeast 353 406 12,200 -1,980 Descending FAA TRACON SMA TRACON (SMA)
11:14PM 42.5239 -84.2381 117° Southeast 348 400 11,900 -1,080 Descending FAA TRACON SMA TRACON (SMA)
11:14PM 42.5103 -84.2028 118° Southeast 345 397 11,500 -1,080 Descending FAA TRACON SMA TRACON (SMA)
11:15PM 42.4919 -84.1592 120° Southeast 346 398 11,200 -1,080 Descending FAA TRACON SMA TRACON (SMA)
11:15PM 42.4775 -84.1258 120° Southeast 338 389 10,800 -1,200 Descending FAA TRACON SMA TRACON (SMA)
11:15PM 42.4644 -84.0944 119° Southeast 317 365 10,400 -1,680 Descending FAA TRACON SMA TRACON (SMA)
11:16PM 42.4492 -84.0561 118° Southeast 300 345 9,700 -1,800 Descending FAA TRACON SMA TRACON (SMA)
11:16PM 42.4372 -84.0258 118° Southeast 297 342 9,200 -1,500 Descending FAA TRACON SMA TRACON (SMA)
11:16PM 42.4319 -83.9919 102° East 301 346 8,700 -2,160 Descending FAA TRACON SMA TRACON (SMA)
11:17PM 42.4286 -83.9503 96° East 288 331 7,800 -2,400 Descending FAA TRACON SMA TRACON (SMA)
11:17PM 42.4264 -83.9186 95° East 281 323 7,100 -2,280 Descending FAA TRACON SMA TRACON (SMA)
11:17PM 42.4233 -83.8875 98° East 276 318 6,300 -2,400 Descending FAA TRACON SMA TRACON (SMA)
11:18PM 42.4194 -83.8497 98° East 267 307 5,500 -2,100 Descending FAA TRACON SMA TRACON (SMA)
11:18PM 42.4164 -83.8217 98° East 253 291 4,900 -1,740 Descending FAA TRACON SMA TRACON (SMA)
11:18PM 42.4133 -83.7942 99° East 242 278 4,400 -1,680 Descending FAA TRACON SMA TRACON (SMA)
11:19PM 42.4094 -83.7619 99° East 229 264 3,800 -1,680 Descending FAA TRACON SMA TRACON (SMA)
11:19PM 42.4058 -83.7383 102° East 213 245 3,300 -1,380 Descending FAA TRACON SMA TRACON (SMA)
11:19PM 42.4006 -83.7153 107° East 207 238 2,900 -1,080 Descending FAA TRACON SMA TRACON (SMA)
11:20PM 42.3942 -83.6894 109° East 191 220 2,600 -780 Descending FAA TRACON SMA TRACON (SMA)
11:20PM 42.3892 -83.6686 108° East 190 219 2,400 -480 Descending FAA TRACON SMA TRACON (SMA)
11:20PM 42.3839 -83.6489 110° East 187 215 2,300 -180 Descending FAA TRACON SMA TRACON (SMA)
11:21PM 42.3764 -83.6264 114° Southeast 184 212 2,300  Level FAA TRACON SMA TRACON (SMA)
11:21PM 42.3692 -83.6103 121° Southeast 142 163 2,300  Level FAA TRACON SMA TRACON (SMA)
11:21PM 42.3589 -83.5906 125° Southeast 150 173 2,300  Level FAA TRACON SMA TRACON (SMA)
11:22PM 42.3508 -83.5750 125° Southeast 172 198 2,300  Level FAA TRACON SMA TRACON (SMA)
11:22PM 42.3428 -83.5597 125° Southeast 164 189 2,300  Level FAA TRACON SMA TRACON (SMA)
11:22PM 42.3339 -83.5389 120° Southeast 176 203 2,300  Level FAA TRACON SMA TRACON (SMA)
11:23PM 42.3278 -83.5217 116° Southeast 166 191 2,300  Level FAA TRACON SMA TRACON (SMA)
11:23PM 42.3250 -83.5028 101° East 168 193 2,300  Level FAA TRACON SMA TRACON (SMA)
11:23PM 42.3211 -83.4800 103° East 157 181 2,300 -180 Level FAA TRACON SMA TRACON (SMA)
11:24PM 42.3169 -83.4661 112° Southeast 142 163 2,200 -420 Descending FAA TRACON SMA TRACON (SMA)
11:24PM 42.2953 -83.4567 162° South 131 151 1,900 -540 Descending FAA TRACON SMA TRACON (SMA)
11:25PM 42.2856 -83.4647 212° Southwest 132 152 1,700 -480 Descending FAA TRACON SMA TRACON (SMA)
11:25PM 42.2769 -83.4733 216° Southwest 126 145 1,600 -480 Descending FAA TRACON SMA TRACON (SMA)
11:25PM 42.2667 -83.4878 226° Southwest 139 160 1,400 -780 Descending FAA TRACON SMA TRACON (SMA)
11:26PM 42.2583 -83.5003 228° Southwest 142 163 1,100 -780 Descending FAA TRACON SMA TRACON (SMA)
11:26PM 42.2500 -83.5119 226° Southwest 139 160 900 -300 Descending FAA TRACON SMA TRACON (SMA)
11:26PM 42.2500 -83.5119 270° West 139 160 900  Level FAA TRACON SMA TRACON (SMA)